Flight Track Log - Related Links

Times and Time Zones

All times are in EDT time to prevent confusion due to time zone crossing. See the EGF3683 flight status page for this flight to view local times or setup timezone preferences in your user account.

Time Position Orientation Groundspeed Altitude Reporting Facility
EDT Latitude Longitude Course Direction KTS MPH feet Rate Location/Type
Thu 11:37:51 PM 42.0000 -87.9500 253° West 155 178 1,900  Level Chicago TRACON
Thu 11:38:51 PM 42.0333 -88.0000 312° West 190 219 3,800 1,950 Climbing Chicago TRACON
Thu 11:39:00 PM 41.9045 -88.1722 242° Southwest  Level FlightAware Approximate
Thu 11:39:51 PM 42.0667 -88.0667 304° West 250 288 5,800  Level Chicago TRACON
Thu 11:40:00 PM 41.8842 -88.3124 255° West  Level FlightAware Approximate
Thu 11:40:28 PM 42.0742 -88.1333 279° West 263 303 7,300  Level Chicago Center
Thu 11:41:00 PM 41.8412 -88.4439 255° West  Level FlightAware Approximate
Thu 11:41:29 PM 42.0228 -88.2200 231° Southwest 298 343 9,600  Level Chicago Center
Thu 11:42:00 PM 41.8115 -88.5826 254° West  Level FlightAware Approximate
Thu 11:42:30 PM 41.9694 -88.3100 231° Southwest 307 353 12,000  Level Chicago Center
Thu 11:43:00 PM 41.7805 -88.7225 253° West  Level FlightAware Approximate
Thu 11:43:31 PM 41.9136 -88.4106 233° Southwest 330 380 13,000  Level Chicago Center
Thu 11:44:32 PM 41.8569 -88.5322 238° Southwest 378 435 14,100 1,415 Climbing Chicago Center
Thu 11:45:34 PM 41.8228 -88.6667 251° West 384 442 15,900 1,686 Climbing Chicago Center
Thu 11:46:33 PM 41.7894 -88.8044 252° West 390 449 17,500 1,150 Climbing Chicago Center
Thu 11:47:34 PM 41.7544 -88.9461 252° West 404 465 18,200 885 Climbing Chicago Center
Thu 11:48:35 PM 41.7175 -89.0947 252° West 421 484 19,300 1,230 Climbing Chicago Center
Thu 11:49:36 PM 41.6644 -89.2719 248° West 430 495 20,700 1,230 Climbing Chicago Center
Thu 11:50:37 PM 41.5978 -89.4167 238° Southwest 451 519 21,800 1,033 Climbing Chicago Center
Thu 11:51:38 PM 41.5403 -89.5486 240° Southwest 457 526 22,800 1,033 Climbing Chicago Center
Thu 11:52:39 PM 41.4747 -89.6953 239° Southwest 458 527 23,900 1,122 Climbing Chicago Center
Thu 11:53:41 PM 41.4108 -89.8406 240° Southwest 457 526 25,100 1,171 Climbing Chicago Center
Thu 11:54:42 PM 41.3475 -89.9814 239° Southwest 449 517 26,300 1,180 Climbing Chicago Center
Thu 11:54:42 PM 41.3475 -89.9814 239° Southwest 449 517 26,300 1,475 Level Chicago Center
Thu 11:55:43 PM 41.2728 -90.1500 240° Southwest 445 512 27,800 1,475 Climbing Chicago Center
Thu 11:55:43 PM 41.2728 -90.1500 240° Southwest 445 512 27,800 1,475 Level Chicago Center
Thu 11:56:44 PM 41.2106 -90.2869 239° Southwest 438 504 29,300 1,475 Climbing Chicago Center
Thu 11:56:44 PM 41.2106 -90.2869 239° Southwest 438 504 29,300 1,082 Level Chicago Center
Thu 11:57:45 PM 41.1503 -90.4200 239° Southwest 429 494 30,400 1,082 Climbing Chicago Center
Thu 11:57:45 PM 41.1503 -90.4200 239° Southwest 429 494 30,400 984 Level Chicago Center
Thu 11:58:46 PM 41.0906 -90.5522 239° Southwest 423 487 31,400 984 Climbing Chicago Center
Thu 11:58:46 PM 41.0906 -90.5522 239° Southwest 423 487 31,400 984 Level Chicago Center
Thu 11:59:47 PM 41.0303 -90.6828 239° Southwest 420 483 32,400 984 Climbing Chicago Center
Fri 12:00:48 AM 40.9706 -90.8119 239° Southwest 415 478 33,400 836 Climbing Chicago Center
Fri 12:01:49 AM 40.9122 -90.9411 239° Southwest 412 474 34,100 639 Climbing Chicago Center
Fri 12:02:50 AM 40.8522 -91.0711 239° Southwest 414 476 34,700 590 Climbing Chicago Center
Fri 12:03:51 AM 40.7917 -91.2022 239° Southwest 418 481 35,300 639 Climbing Chicago Center
Fri 12:04:52 AM 40.7192 -91.3556 238° Southwest 418 481 36,000 344 Climbing Chicago Center
Fri 12:05:53 AM 40.6575 -91.4869 238° Southwest 423 487 36,000  Level Chicago Center
Fri 12:06:54 AM 40.5928 -91.6233 238° Southwest 439 505 36,000  Level Chicago Center
Fri 12:07:55 AM 40.5283 -91.7614 238° Southwest 444 511 36,000  Level Chicago Center
Fri 12:08:56 AM 40.4625 -91.8997 238° Southwest 448 516 36,000  Level Chicago Center
Fri 12:09:57 AM 40.3967 -92.0372 238° Southwest 446 513 36,000  Level Chicago Center
Fri 12:11:04 AM 40.3178 -92.2003 238° Southwest 444 511 36,000  Level Kansas City Center
Fri 12:12:05 AM 40.2508 -92.3386 238° Southwest 446 513 36,000  Level Kansas City Center
Fri 12:13:06 AM 40.1764 -92.4847 236° Southwest 449 517 36,000  Level Kansas City Center
Fri 12:14:07 AM 40.1144 -92.6181 239° Southwest 449 517 36,000  Level Kansas City Center
Fri 12:15:08 AM 40.0483 -92.7542 238° Southwest 445 512 36,000  Level Kansas City Center
Fri 12:16:09 AM 39.9806 -92.8911 237° Southwest 449 517 36,000  Level Kansas City Center
Fri 12:17:10 AM 39.9139 -93.0267 237° Southwest 448 516 36,000  Level Kansas City Center
Fri 12:18:11 AM 39.8458 -93.1631 237° Southwest 450 518 36,000  Level Kansas City Center
Fri 12:19:13 AM 39.7789 -93.2978 237° Southwest 449 517 36,000  Level Kansas City Center
Fri 12:20:14 AM 39.7114 -93.4331 237° Southwest 449 517 36,000  Level Kansas City Center
Fri 12:21:15 AM 39.6444 -93.5672 237° Southwest 448 516 36,000  Level Kansas City Center
Fri 12:22:16 AM 39.5622 -93.7281 236° Southwest 448 516 36,000  Level Kansas City Center
Fri 12:23:17 AM 39.5000 -93.8556 238° Southwest 445 512 36,000  Level Kansas City Center
Fri 12:24:18 AM 39.4347 -93.9847 237° Southwest 448 516 36,000  Level Kansas City Center
Fri 12:25:19 AM 39.3578 -94.1347 236° Southwest 447 514 36,000  Level Kansas City Center
Fri 12:26:20 AM 39.2922 -94.2631 237° Southwest 447 514 36,000  Level Kansas City Center
Fri 12:27:21 AM 39.2153 -94.4131 237° Southwest 448 516 36,000  Level Kansas City Center
Fri 12:28:22 AM 39.1464 -94.5428 236° Southwest 449 517 36,000  Level Kansas City Center
Fri 12:29:23 AM 39.0808 -94.6700 236° Southwest 450 518 36,000  Level Kansas City Center
Fri 12:30:24 AM 39.0036 -94.8194 236° Southwest 446 513 36,000  Level Kansas City Center
Fri 12:31:25 AM 38.9367 -94.9478 236° Southwest 447 514 36,000  Level Kansas City Center
Fri 12:32:26 AM 38.8697 -95.0756 236° Southwest 448 516 36,000  Level Kansas City Center
Fri 12:33:27 AM 38.8022 -95.2028 236° Southwest 447 514 36,000  Level Kansas City Center
Fri 12:34:27 AM 38.7250 -95.3525 237° Southwest 448 516 36,000  Level Kansas City Center
Fri 12:35:28 AM 38.6583 -95.4767 236° Southwest 445 512 36,000  Level Kansas City Center
Fri 12:36:29 AM 38.5919 -95.6008 236° Southwest 442 509 36,000  Level Kansas City Center
Fri 12:37:30 AM 38.5142 -95.7453 235° Southwest 441 507 36,000  Level Kansas City Center
Fri 12:38:31 AM 38.4486 -95.8675 236° Southwest 437 503 36,000  Level Kansas City Center
Fri 12:39:32 AM 38.3825 -95.9878 235° Southwest 434 499 36,000  Level Kansas City Center
Fri 12:40:33 AM 38.3058 -96.1289 235° Southwest 433 498 36,000  Level Kansas City Center
Fri 12:41:34 AM 38.2414 -96.2489 236° Southwest 430 495 36,000  Level Kansas City Center
Fri 12:42:35 AM 38.1750 -96.3689 235° Southwest 431 496 36,000  Level Kansas City Center
Fri 12:43:36 AM 38.1061 -96.4953 235° Southwest 434 499 36,000  Level Kansas City Center
Fri 12:44:37 AM 38.0389 -96.6181 235° Southwest 426 490 36,000 246 Level Kansas City Center
Fri 12:45:38 AM 37.9717 -96.7394 235° Southwest 420 483 36,500 793 Climbing Kansas City Center
Fri 12:46:38 AM 37.9064 -96.8550 234° Southwest 407 468 37,600 744 Climbing Kansas City Center
Fri 12:47:39 AM 37.8442 -96.9681 235° Southwest 395 455 38,000 197 Climbing Kansas City Center
Fri 12:48:40 AM 37.7669 -97.1058 235° Southwest 398 458 38,000  Level Kansas City Center
Fri 12:49:41 AM 37.7028 -97.2206 235° Southwest 400 460 38,000  Level Kansas City Center
Fri 12:50:42 AM 37.6378 -97.3353 234° Southwest 399 459 38,000  Level Kansas City Center
Fri 12:51:43 AM 37.5725 -97.4503 234° Southwest 400 460 38,000  Level Kansas City Center
Fri 12:52:43 AM 37.5083 -97.5628 234° Southwest 395 455 38,000  Level Kansas City Center
Fri 12:53:44 AM 37.4442 -97.6761 235° Southwest 395 455 38,000  Level Kansas City Center
Fri 12:54:45 AM 37.3803 -97.7875 234° Southwest 392 451 38,000  Level Kansas City Center
Fri 12:55:46 AM 37.3169 -97.8981 234° Southwest 390 449 38,000  Level Kansas City Center
Fri 12:56:47 AM 37.2528 -98.0086 234° Southwest 390 449 38,000  Level Kansas City Center
Fri 12:57:47 AM 37.1900 -98.1175 234° Southwest 387 445 38,000  Level Kansas City Center
Fri 12:58:48 AM 37.1264 -98.2269 234° Southwest 388 447 38,000  Level Kansas City Center
Fri 12:59:49 AM 37.0639 -98.3372 235° Southwest 388 447 38,000  Level Kansas City Center
Fri 01:00:49 AM 36.9978 -98.4500 234° Southwest 383 441 38,000  Level Kansas City Center
Fri 01:01:50 AM 36.9353 -98.5589 234° Southwest 382 440 38,000  Level Kansas City Center
Fri 01:02:51 AM 36.8728 -98.6667 234° Southwest 383 441 38,000  Level Kansas City Center
Fri 01:03:52 AM 36.8111 -98.7742 234° Southwest 381 438 38,000  Level Kansas City Center
Fri 01:04:52 AM 36.7475 -98.8794 233° Southwest 380 437 38,000  Level Kansas City Center
Fri 01:05:53 AM 36.6856 -98.9844 234° Southwest 377 434 38,000  Level Kansas City Center
Fri 01:06:54 AM 36.6242 -99.0886 234° Southwest 375 432 38,000  Level Kansas City Center
Fri 01:07:54 AM 36.5614 -99.1903 232° Southwest 372 428 38,000  Level Kansas City Center
Fri 01:08:55 AM 36.4992 -99.2972 234° Southwest 378 435 38,000  Level Kansas City Center
Fri 01:09:56 AM 36.4358 -99.4019 233° Southwest 381 438 38,000  Level Kansas City Center
Fri 01:10:56 AM 36.3736 -99.5061 233° Southwest 378 435 38,000  Level Kansas City Center
Fri 01:11:57 AM 36.3100 -99.6103 233° Southwest 380 437 38,000  Level Kansas City Center
Fri 01:12:57 AM 36.2472 -99.7133 233° Southwest 378 435 38,000  Level Kansas City Center
Fri 01:13:58 AM 36.1839 -99.8178 233° Southwest 380 437 38,000  Level Kansas City Center
Fri 01:14:59 AM 36.1208 -99.9217 233° Southwest 378 435 38,000  Level Kansas City Center
Fri 01:15:59 AM 36.0464 -100.0444 233° Southwest 374 430 38,000  Level Kansas City Center
Fri 01:17:00 AM 35.9825 -100.1475 233° Southwest 377 434 38,000  Level Kansas City Center
Fri 01:18:01 AM 35.9192 -100.2511 233° Southwest 378 435 38,000  Level Kansas City Center
Fri 01:18:55 AM 35.8686 -100.3333 233° Southwest 377 434 38,000  Level Albuquerque Center
Fri 01:19:56 AM 35.8047 -100.4367 233° Southwest 379 436 38,000  Level Albuquerque Center
Fri 01:20:56 AM 35.7422 -100.5378 233° Southwest 373 429 38,000  Level Albuquerque Center
Fri 01:21:57 AM 35.6811 -100.6394 234° Southwest 378 435 38,000  Level Albuquerque Center
Fri 01:22:58 AM 35.6053 -100.7628 233° Southwest 378 435 38,000  Level Albuquerque Center
Fri 01:23:58 AM 35.5400 -100.8650 232° Southwest 380 437 38,000  Level Albuquerque Center
Fri 01:24:59 AM 35.4753 -100.9689 233° Southwest 381 438 38,000  Level Albuquerque Center
Fri 01:26:00 AM 35.4100 -101.0719 232° Southwest 383 441 38,000  Level Albuquerque Center
Fri 01:27:00 AM 35.3444 -101.1750 232° Southwest 382 440 38,000  Level Albuquerque Center
Fri 01:28:01 AM 35.2775 -101.2786 232° Southwest 385 443 38,000  Level Albuquerque Center
Fri 01:29:02 AM 35.2106 -101.3881 233° Southwest 385 443 38,000  Level Albuquerque Center
Fri 01:30:02 AM 35.1439 -101.4925 232° Southwest 386 444 38,000  Level Albuquerque Center
Fri 01:31:03 AM 35.0772 -101.5956 232° Southwest 388 447 38,000  Level Albuquerque Center
Fri 01:32:04 AM 35.0150 -101.6892 231° Southwest 390 449 38,000  Level Albuquerque Center
Fri 01:33:04 AM 34.9408 -101.8039 232° Southwest 392 451 38,000  Level Albuquerque Center
Fri 01:34:05 AM 34.8739 -101.9075 232° Southwest 387 445 38,000  Level Albuquerque Center
Fri 01:35:05 AM 34.8075 -102.0114 232° Southwest 389 448 38,000  Level Albuquerque Center
Fri 01:36:06 AM 34.7397 -102.1156 232° Southwest 391 450 38,000  Level Albuquerque Center
Fri 01:37:07 AM 34.6725 -102.2192 232° Southwest 391 450 38,000  Level Albuquerque Center
Fri 01:38:07 AM 34.6047 -102.3239 232° Southwest 393 452 38,000  Level Albuquerque Center
Fri 01:39:08 AM 34.5364 -102.4289 232° Southwest 394 453 38,000  Level Albuquerque Center
Fri 01:40:08 AM 34.4678 -102.5333 231° Southwest 397 457 38,000  Level Albuquerque Center
Fri 01:41:09 AM 34.3997 -102.6381 232° Southwest 397 457 38,000  Level Albuquerque Center
Fri 01:42:10 AM 34.3306 -102.7411 231° Southwest 397 457 38,000  Level Albuquerque Center
Fri 01:43:10 AM 34.2611 -102.8461 231° Southwest 398 458 38,000  Level Albuquerque Center
Fri 01:44:11 AM 34.1903 -102.9536 231° Southwest 396 456 38,000  Level Albuquerque Center
Fri 01:45:11 AM 34.1219 -103.0569 231° Southwest 396 456 38,000  Level Albuquerque Center
Fri 01:46:12 AM 34.0522 -103.1597 231° Southwest 396 456 38,000 -49 Level Albuquerque Center
Fri 01:47:13 AM 33.9833 -103.2650 232° Southwest 398 458 37,900  Descending Albuquerque Center
Fri 01:48:13 AM 33.9128 -103.3697 231° Southwest 402 463 38,000 50 Climbing Albuquerque Center
Fri 01:49:14 AM 33.8419 -103.4764 231° Southwest 406 467 38,000  Level Albuquerque Center
Fri 01:50:14 AM 33.7700 -103.5817 231° Southwest 407 468 38,000  Level Albuquerque Center
Fri 01:51:15 AM 33.6878 -103.7058 232° Southwest 408 470 38,000  Level Albuquerque Center
Fri 01:52:15 AM 33.6164 -103.8111 231° Southwest 408 470 38,000  Level Albuquerque Center
Fri 01:53:16 AM 33.5456 -103.9156 231° Southwest 405 466 38,000  Level Albuquerque Center
Fri 01:54:16 AM 33.4728 -104.0214 231° Southwest 409 471 38,000 -545 Level Albuquerque Center
Fri 01:55:17 AM 33.3989 -104.1275 230° Southwest 414 476 36,900 -1,091 Descending Albuquerque Center
Fri 01:56:17 AM 33.3161 -104.2231 224° Southwest 414 476 35,800 -1,190 Descending Albuquerque Center
Fri 01:57:18 AM 33.2328 -104.3186 224° Southwest 413 475 34,500 -1,230 Descending Albuquerque Center
Fri 01:58:19 AM 33.1497 -104.4125 223° Southwest 411 473 33,300 -1,190 Descending Albuquerque Center
Fri 01:59:19 AM 33.0667 -104.5081 224° Southwest 413 475 32,100 -1,140 Descending Albuquerque Center
Fri 02:00:20 AM 32.9844 -104.6022 224° Southwest 409 471 31,000 -1,240 Descending Albuquerque Center
Fri 02:01:20 AM 32.8981 -104.7008 224° Southwest 428 493 29,600 -1,488 Descending Albuquerque Center
Fri 02:02:21 AM 32.8106 -104.7986 223° Southwest 430 495 28,000 -1,587 Descending Albuquerque Center
Fri 02:03:21 AM 32.7275 -104.8953 224° Southwest 418 481 26,400 -1,686 Descending Albuquerque Center
Fri 02:04:22 AM 32.6394 -104.9967 224° Southwest 426 490 24,600 -1,736 Descending Albuquerque Center
Fri 02:05:22 AM 32.5508 -105.0978 224° Southwest 438 504 22,900 -1,636 Descending Albuquerque Center
Fri 02:06:23 AM 32.4642 -105.1972 224° Southwest 439 505 21,300 -1,587 Descending Albuquerque Center
Fri 02:07:23 AM 32.3822 -105.2847 222° Southwest 419 482 19,700 -1,661 Descending Albuquerque Center
Fri 02:08:15 AM 32.3017 -105.3725 223° Southwest 406 467 18,200 -1,474 Descending Albuquerque Center
Fri 02:10:00 AM 32.1567 -105.4989 226° Southwest  Level FlightAware Approximate
Fri 02:11:11 AM 32.0667 -105.6347 226° Southwest 397 457 14,100  Level Albuquerque Center
Fri 02:12:12 AM 31.9861 -105.7181 221° Southwest 387 445 12,800 -1,289 Descending Albuquerque Center
Fri 02:13:12 AM 31.9125 -105.8047 225° Southwest 382 440 11,500 -1,190 Descending Albuquerque Center
Fri 02:14:13 AM 31.9000 -105.9106 262° West 311 358 10,400 -885 Descending Albuquerque Center
Fri 02:15:14 AM 31.8919 -106.0053 264° West 273 314 9,700 -793 Descending Albuquerque Center
Fri 02:16:14 AM 31.8808 -106.0956 262° West 281 323 8,800 -900 Descending Albuquerque Center

Login

Don't have an account? Register now (free) for customized features, flight alerts, and more!